createdAt,value
2023-01-25T00:01:28.665Z,5.28
2023-01-25T00:03:55.168Z,4.10
2023-01-25T00:06:21.638Z,4.32
2023-01-25T00:08:51.209Z,5.25
2023-01-25T00:11:18.166Z,3.92
2023-01-25T00:13:44.612Z,3.45
2023-01-25T00:16:11.193Z,3.25
2023-01-25T00:18:37.771Z,3.38
2023-01-25T00:21:13.771Z,2.72
2023-01-25T00:23:40.274Z,1.83
2023-01-25T00:26:06.866Z,1.00
2023-01-25T00:28:33.336Z,0.90
2023-01-25T00:31:00.916Z,1.15
2023-01-25T00:33:39.319Z,0.80
2023-01-25T00:36:24.237Z,0.70
2023-01-25T00:38:53.067Z,0.70
2023-01-25T00:41:20.161Z,0.88
2023-01-25T00:43:50.166Z,0.63
2023-01-25T00:46:18.476Z,1.00
2023-01-25T00:48:45.658Z,0.95
2023-01-25T00:51:13.044Z,1.00
2023-01-25T00:53:39.798Z,1.23
2023-01-25T00:56:06.855Z,1.17
2023-01-25T00:58:33.341Z,1.23
2023-01-25T01:00:59.831Z,1.45
2023-01-25T01:03:29.656Z,2.25
2023-01-25T01:06:09.789Z,1.60
2023-01-25T01:08:39.010Z,1.52
2023-01-25T01:11:06.763Z,1.38
2023-01-25T01:13:33.512Z,1.63
2023-01-25T01:16:06.512Z,1.85
2023-01-25T01:18:36.486Z,1.95
2023-01-25T01:21:03.166Z,2.30
2023-01-25T01:23:29.904Z,2.05
2023-01-25T01:25:56.363Z,2.00
2023-01-25T01:28:22.829Z,1.85
2023-01-25T01:30:49.363Z,2.25
2023-01-25T01:33:15.842Z,1.25
2023-01-25T01:35:42.348Z,1.88
2023-01-25T01:38:08.829Z,1.50
2023-01-25T01:40:35.306Z,1.60
2023-01-25T01:43:02.992Z,1.40
2023-01-25T01:45:48.152Z,1.48
2023-01-25T01:48:35.287Z,1.45
2023-01-25T01:51:14.023Z,1.33
2023-01-25T01:53:42.200Z,1.52
2023-01-25T01:56:11.444Z,1.50
2023-01-25T01:58:38.185Z,2.15
2023-01-25T02:01:04.834Z,2.15
2023-01-25T02:03:31.755Z,2.80
2023-01-25T02:06:09.016Z,2.83
2023-01-25T02:08:36.925Z,3.40
2023-01-25T02:11:04.136Z,2.60
2023-01-25T02:13:31.641Z,3.03
2023-01-25T02:15:58.443Z,3.97
2023-01-25T02:18:25.375Z,3.22
2023-01-25T02:20:53.017Z,2.72
2023-01-25T02:23:27.715Z,3.05
2023-01-25T02:25:55.311Z,2.70
2023-01-25T02:28:30.204Z,2.72
2023-01-25T02:30:56.744Z,2.80
2023-01-25T02:33:24.158Z,2.17
2023-01-25T02:35:53.975Z,1.98
2023-01-25T02:38:21.362Z,2.53
2023-01-25T02:40:49.505Z,1.55
2023-01-25T02:43:16.364Z,1.80
2023-01-25T02:45:45.250Z,1.67
2023-01-25T02:48:11.798Z,1.10
2023-01-25T02:50:38.336Z,1.35
2023-01-25T02:53:04.809Z,1.35
2023-01-25T02:55:31.355Z,1.00
2023-01-25T02:57:57.886Z,0.75
2023-01-25T03:00:26.987Z,0.70
2023-01-25T03:02:53.499Z,0.90
2023-01-25T03:05:20.007Z,0.40
2023-01-25T03:07:46.491Z,0.70
2023-01-25T03:10:13.015Z,0.75
2023-01-25T03:12:39.596Z,0.60
2023-01-25T03:15:06.849Z,1.20
2023-01-25T03:17:33.611Z,0.55
2023-01-25T03:20:00.100Z,0.70
2023-01-25T03:22:26.575Z,0.70
2023-01-25T03:24:53.121Z,0.57
2023-01-25T03:27:19.600Z,0.70
2023-01-25T03:29:46.137Z,0.70
2023-01-25T03:32:12.768Z,0.70
2023-01-25T03:34:39.233Z,0.80
2023-01-25T03:37:05.729Z,0.80
2023-01-25T03:39:32.295Z,0.77
2023-01-25T03:41:58.762Z,0.57
2023-01-25T03:44:25.243Z,0.50
2023-01-25T03:46:51.830Z,0.90
2023-01-25T03:49:18.746Z,0.68
2023-01-25T03:51:45.191Z,0.70
2023-01-25T03:54:11.685Z,0.70
2023-01-25T03:56:38.200Z,0.70
2023-01-25T03:59:04.934Z,0.73
2023-01-25T04:01:31.459Z,0.57
2023-01-25T04:03:58.035Z,0.57
2023-01-25T04:06:24.482Z,0.40
2023-01-25T04:08:50.964Z,0.38
2023-01-25T04:11:17.485Z,0.40
2023-01-25T04:13:43.980Z,0.30
2023-01-25T04:16:13.578Z,0.20
2023-01-25T04:18:40.856Z,0.30
2023-01-25T04:21:07.822Z,0.28
2023-01-25T04:23:34.304Z,0.25
2023-01-25T04:26:01.723Z,0.63
2023-01-25T04:28:28.489Z,0.52
2023-01-25T04:30:55.563Z,0.50
2023-01-25T04:33:22.490Z,0.38
2023-01-25T04:35:48.935Z,0.43
2023-01-25T04:38:15.706Z,0.40
2023-01-25T04:40:42.513Z,0.95
2023-01-25T04:43:08.969Z,0.28
2023-01-25T04:45:36.521Z,0.40
2023-01-25T04:48:04.026Z,0.40
2023-01-25T04:50:30.907Z,0.82
2023-01-25T04:52:57.508Z,0.40
2023-01-25T04:55:23.965Z,0.32
2023-01-25T04:57:51.058Z,0.20
2023-01-25T05:00:18.365Z,0.40
2023-01-25T05:02:45.137Z,0.30
2023-01-25T05:05:12.342Z,0.32
2023-01-25T05:07:38.972Z,0.20
2023-01-25T05:10:05.868Z,0.50
2023-01-25T05:12:32.330Z,0.82
2023-01-25T05:14:58.908Z,0.68
2023-01-25T05:17:25.481Z,0.47
2023-01-25T05:19:51.985Z,0.40
2023-01-25T05:22:20.856Z,0.50
2023-01-25T05:24:47.698Z,0.50
2023-01-25T05:27:15.254Z,0.50
2023-01-25T05:29:43.121Z,0.60
2023-01-25T05:32:11.698Z,0.57
2023-01-25T05:34:38.566Z,0.40
2023-01-25T05:37:05.957Z,0.30
2023-01-25T05:39:32.456Z,0.47
2023-01-25T05:41:58.945Z,0.30
2023-01-25T05:44:25.595Z,0.35
2023-01-25T05:46:52.139Z,0.40
2023-01-25T05:49:19.051Z,0.55
2023-01-25T05:51:46.124Z,0.73
2023-01-25T05:54:14.227Z,0.50
2023-01-25T05:56:41.170Z,0.32
2023-01-25T05:59:07.774Z,0.70
2023-01-25T06:01:34.386Z,0.47
2023-01-25T06:04:01.187Z,0.68
2023-01-25T06:06:27.680Z,0.50
2023-01-25T06:08:54.204Z,0.45
2023-01-25T06:11:22.245Z,0.50
2023-01-25T06:13:49.448Z,0.60
2023-01-25T06:16:16.748Z,0.60
2023-01-25T06:18:43.695Z,1.05
2023-01-25T06:21:10.195Z,0.90
2023-01-25T06:23:39.841Z,0.90
2023-01-25T06:26:11.699Z,0.60
2023-01-25T06:28:38.210Z,1.27
2023-01-25T06:31:06.185Z,1.20
2023-01-25T06:33:33.338Z,1.20
2023-01-25T06:36:00.867Z,1.10
2023-01-25T06:38:27.614Z,1.05
2023-01-25T06:40:54.115Z,0.90
2023-01-25T06:43:20.620Z,1.17
2023-01-25T06:45:47.101Z,0.90
2023-01-25T06:48:13.824Z,1.13
2023-01-25T06:50:40.540Z,1.00
2023-01-25T06:53:07.066Z,0.77
2023-01-25T06:55:33.596Z,1.13
2023-01-25T06:58:00.733Z,1.05
2023-01-25T07:00:27.274Z,1.15
2023-01-25T07:02:53.809Z,1.30
2023-01-25T07:05:20.280Z,1.10
2023-01-25T07:07:47.273Z,1.13
2023-01-25T07:10:13.860Z,1.00
2023-01-25T07:12:40.422Z,1.45
2023-01-25T07:15:07.741Z,0.68
2023-01-25T07:17:34.730Z,1.20
2023-01-25T07:20:01.401Z,1.50
2023-01-25T07:22:28.136Z,1.10
2023-01-25T07:24:57.798Z,1.15
2023-01-25T07:27:24.299Z,1.13
2023-01-25T07:29:50.841Z,0.80
2023-01-25T07:32:17.345Z,0.80
2023-01-25T07:34:46.990Z,0.80
2023-01-25T07:37:13.636Z,0.70
2023-01-25T07:39:47.712Z,1.30
2023-01-25T07:42:14.717Z,1.48
2023-01-25T07:44:41.498Z,1.08
2023-01-25T07:47:08.077Z,1.30
2023-01-25T07:49:34.689Z,1.85
2023-01-25T07:52:01.204Z,1.30
2023-01-25T07:54:27.827Z,1.10
2023-01-25T07:56:54.309Z,1.40
2023-01-25T07:59:20.798Z,0.82
2023-01-25T08:01:47.316Z,0.88
2023-01-25T08:04:13.918Z,0.70
2023-01-25T08:06:40.560Z,0.93
2023-01-25T08:09:08.722Z,0.88
2023-01-25T08:11:35.494Z,0.73
2023-01-25T08:14:03.256Z,0.43
2023-01-25T08:16:30.988Z,0.17
2023-01-25T08:18:59.032Z,0.40
2023-01-25T08:21:29.168Z,0.40
2023-01-25T08:24:03.993Z,0.40
2023-01-25T08:26:30.924Z,0.30
2023-01-25T08:28:58.176Z,0.30
2023-01-25T08:31:26.310Z,0.20
2023-01-25T08:33:53.152Z,0.30
2023-01-25T08:36:20.433Z,0.30
2023-01-25T08:38:47.836Z,0.20
2023-01-25T08:41:16.280Z,0.50
2023-01-25T08:43:45.703Z,0.32
2023-01-25T08:46:12.813Z,0.50
2023-01-25T08:48:39.394Z,0.40
2023-01-25T08:51:08.621Z,0.30
2023-01-25T08:53:35.096Z,0.40
2023-01-25T08:56:05.556Z,0.47
2023-01-25T08:58:32.646Z,0.82
2023-01-25T09:01:03.544Z,0.63
2023-01-25T09:03:30.414Z,1.35
2023-01-25T09:05:57.265Z,1.60
2023-01-25T09:08:23.832Z,0.95
2023-01-25T09:10:50.523Z,0.93
2023-01-25T09:13:17.543Z,1.50
2023-01-25T09:15:44.526Z,1.65
2023-01-25T09:18:11.450Z,0.88
2023-01-25T09:20:40.767Z,1.27
2023-01-25T09:23:07.326Z,1.42
2023-01-25T09:25:34.787Z,1.30
2023-01-25T09:28:01.796Z,1.77
2023-01-25T09:30:37.497Z,1.60
2023-01-25T09:33:16.616Z,1.45
2023-01-25T09:35:49.984Z,1.13
2023-01-25T09:38:16.485Z,1.17
2023-01-25T09:40:47.085Z,0.98
2023-01-25T09:43:21.774Z,1.00
2023-01-25T09:45:48.524Z,0.68
2023-01-25T09:48:15.019Z,0.70
2023-01-25T09:51:01.047Z,1.30
2023-01-25T09:53:31.589Z,1.20
2023-01-25T09:55:59.724Z,1.10
2023-01-25T09:58:29.351Z,1.27
2023-01-25T10:01:37.695Z,1.17
2023-01-25T10:04:25.582Z,1.00
2023-01-25T10:07:00.159Z,1.30
2023-01-25T10:09:33.166Z,0.90
2023-01-25T10:12:04.504Z,1.27
2023-01-25T10:14:35.667Z,0.80
2023-01-25T10:17:06.128Z,1.13
2023-01-25T10:19:58.767Z,1.58
2023-01-25T10:22:29.806Z,1.00
2023-01-25T10:25:12.233Z,0.90
2023-01-25T10:27:54.112Z,1.17
2023-01-25T10:30:30.772Z,1.63
2023-01-25T10:32:59.020Z,1.10
2023-01-25T10:35:39.713Z,0.80
2023-01-25T10:38:18.848Z,1.10
2023-01-25T10:40:59.961Z,1.00
2023-01-25T10:43:26.519Z,1.02
2023-01-25T10:45:55.546Z,0.90
2023-01-25T10:48:24.377Z,1.20
2023-01-25T10:50:52.133Z,1.10
2023-01-25T10:53:23.198Z,0.75
2023-01-25T10:55:55.803Z,1.30
2023-01-25T10:58:42.634Z,0.80
2023-01-25T11:01:11.223Z,1.00
2023-01-25T11:03:41.900Z,1.75
2023-01-25T11:06:09.323Z,1.10
2023-01-25T11:08:37.165Z,0.85
2023-01-25T11:11:22.052Z,1.00
2023-01-25T11:13:48.874Z,0.90
2023-01-25T11:16:18.490Z,1.02
2023-01-25T11:18:53.004Z,1.10
2023-01-25T11:21:23.366Z,0.73
2023-01-25T11:24:10.258Z,0.73
2023-01-25T11:26:40.717Z,0.65
2023-01-25T11:29:10.057Z,0.40
2023-01-25T11:31:36.793Z,0.70
2023-01-25T11:34:08.361Z,0.60
2023-01-25T11:36:53.699Z,0.60
2023-01-25T11:39:20.156Z,0.85
2023-01-25T11:42:02.919Z,0.90
2023-01-25T11:44:55.580Z,0.40
2023-01-25T11:47:28.995Z,0.80
2023-01-25T11:50:04.424Z,0.55
2023-01-25T11:52:30.855Z,0.70
2023-01-25T11:55:07.683Z,0.77
2023-01-25T11:57:56.131Z,0.82
2023-01-25T12:00:31.753Z,1.75
2023-01-25T12:03:17.037Z,0.82
2023-01-25T12:05:46.520Z,0.90
2023-01-25T12:08:12.966Z,0.90
2023-01-25T12:10:39.472Z,1.20
2023-01-25T12:13:22.175Z,0.80
2023-01-25T12:16:04.025Z,1.27
2023-01-25T12:18:38.781Z,1.10
2023-01-25T12:21:08.677Z,1.55
2023-01-25T12:23:59.306Z,0.93
2023-01-25T12:26:29.572Z,1.25
2023-01-25T12:28:58.918Z,1.50
2023-01-25T12:31:29.093Z,1.50
2023-01-25T12:34:08.963Z,1.88
2023-01-25T12:36:38.460Z,1.60
2023-01-25T12:39:09.416Z,1.38
2023-01-25T12:41:41.677Z,1.42
2023-01-25T12:44:43.707Z,1.60
2023-01-25T12:47:15.027Z,1.30
2023-01-25T12:49:48.589Z,2.92
2023-01-25T12:52:19.321Z,1.67
2023-01-25T12:54:47.339Z,1.75
2023-01-25T12:57:25.934Z,1.50
2023-01-25T12:59:58.884Z,1.75
2023-01-25T13:02:34.277Z,1.77
2023-01-25T13:05:26.834Z,1.95
2023-01-25T13:08:15.863Z,1.40
2023-01-25T13:10:52.660Z,1.45
2023-01-25T13:13:19.156Z,1.50
2023-01-25T13:15:46.315Z,2.53
2023-01-25T13:18:25.023Z,1.83
2023-01-25T13:20:55.941Z,1.65
2023-01-25T13:23:34.757Z,1.02
2023-01-25T13:26:20.060Z,1.27
2023-01-25T13:28:47.407Z,1.98
2023-01-25T13:31:46.368Z,1.40
2023-01-25T13:34:39.479Z,2.03
2023-01-25T13:37:18.064Z,1.60
2023-01-25T13:39:47.121Z,2.05
2023-01-25T13:42:13.606Z,1.83
2023-01-25T13:44:59.847Z,1.70
2023-01-25T13:47:28.433Z,2.90
2023-01-25T13:49:54.998Z,1.80
2023-01-25T13:52:22.893Z,2.03
2023-01-25T13:54:50.267Z,1.88
2023-01-25T13:57:35.052Z,1.60
2023-01-25T14:00:10.226Z,1.95
2023-01-25T14:02:37.927Z,1.85
2023-01-25T14:05:08.100Z,1.25
2023-01-25T14:07:37.002Z,2.53
2023-01-25T14:10:08.542Z,1.67
2023-01-25T14:12:37.892Z,2.38
2023-01-25T14:15:30.525Z,1.85
2023-01-25T14:18:09.060Z,1.73
2023-01-25T14:20:35.858Z,3.78
2023-01-25T14:23:02.480Z,1.25
2023-01-25T14:25:28.978Z,2.72
2023-01-25T14:28:02.379Z,2.17
2023-01-25T14:30:28.830Z,2.33
2023-01-25T14:32:56.752Z,2.42
2023-01-25T14:35:43.033Z,1.25
2023-01-25T14:38:28.353Z,1.67
2023-01-25T14:41:03.365Z,1.85
2023-01-25T14:43:30.759Z,2.17
2023-01-25T14:45:57.448Z,2.38
2023-01-25T14:48:33.713Z,2.00
2023-01-25T14:51:10.540Z,1.80
2023-01-25T14:53:39.360Z,2.22
2023-01-25T14:56:05.873Z,1.73
2023-01-25T14:58:32.403Z,1.70
2023-01-25T15:01:00.458Z,2.00
2023-01-25T15:03:27.386Z,1.67
2023-01-25T15:05:54.872Z,1.55
2023-01-25T15:08:28.195Z,1.65
2023-01-25T15:10:55.880Z,2.33
2023-01-25T15:13:24.057Z,1.65
2023-01-25T15:16:00.779Z,1.42
2023-01-25T15:18:46.081Z,1.50
2023-01-25T15:21:16.780Z,1.35
2023-01-25T15:23:44.467Z,1.63
2023-01-25T15:26:23.938Z,2.03
2023-01-25T15:28:51.009Z,1.75
2023-01-25T15:31:28.124Z,1.58
2023-01-25T15:33:55.536Z,2.03
2023-01-25T15:36:22.573Z,2.13
2023-01-25T15:38:49.135Z,1.33
2023-01-25T15:41:16.593Z,1.90
2023-01-25T15:43:43.217Z,1.02
2023-01-25T15:46:17.968Z,1.90
2023-01-25T15:48:45.307Z,2.58
2023-01-25T15:51:12.509Z,2.33
2023-01-25T15:53:39.384Z,2.33
2023-01-25T15:56:08.400Z,2.00
2023-01-25T15:58:36.779Z,2.60
2023-01-25T16:01:03.854Z,2.13
2023-01-25T16:03:30.785Z,2.30
2023-01-25T16:05:58.941Z,1.90
2023-01-25T16:08:25.657Z,1.90
2023-01-25T16:10:52.361Z,2.75
2023-01-25T16:13:18.852Z,1.50
2023-01-25T16:15:48.378Z,1.75
2023-01-25T16:18:14.961Z,2.25
2023-01-25T16:20:43.308Z,1.77
2023-01-25T16:23:11.978Z,2.05
2023-01-25T16:25:39.488Z,1.98
2023-01-25T16:28:06.028Z,2.50
2023-01-25T16:30:34.189Z,2.13
2023-01-25T16:33:00.795Z,2.55
2023-01-25T16:35:27.505Z,2.35
2023-01-25T16:37:53.956Z,2.03
2023-01-25T16:40:30.113Z,2.83
2023-01-25T16:42:56.912Z,2.38
2023-01-25T16:45:24.242Z,2.13
2023-01-25T16:47:51.755Z,1.92
2023-01-25T16:50:19.549Z,2.40
2023-01-25T16:52:49.158Z,1.92
2023-01-25T16:55:15.947Z,3.00
2023-01-25T16:57:43.668Z,2.47
2023-01-25T17:00:13.774Z,2.00
2023-01-25T17:02:46.825Z,3.20
2023-01-25T17:05:23.799Z,2.72
2023-01-25T17:07:50.837Z,1.80
2023-01-25T17:10:17.312Z,2.40
2023-01-25T17:12:45.484Z,2.22
2023-01-25T17:15:12.000Z,3.20
2023-01-25T17:17:38.524Z,2.83
2023-01-25T17:20:05.373Z,2.38
2023-01-25T17:22:37.433Z,2.63
2023-01-25T17:25:05.362Z,3.65
2023-01-25T17:27:32.198Z,2.28
2023-01-25T17:29:58.664Z,2.58
2023-01-25T17:32:25.351Z,2.25
2023-01-25T17:34:51.921Z,2.80
2023-01-25T17:37:18.380Z,2.28
2023-01-25T17:39:44.926Z,2.72
2023-01-25T17:42:13.266Z,2.38
2023-01-25T17:44:39.729Z,2.10
2023-01-25T17:47:06.275Z,2.33
2023-01-25T17:49:32.718Z,1.92
2023-01-25T17:51:59.177Z,2.40
2023-01-25T17:54:25.651Z,3.03
2023-01-25T17:56:52.148Z,2.42
2023-01-25T17:59:18.647Z,2.75
2023-01-25T18:01:45.157Z,2.33
2023-01-25T18:04:13.367Z,3.35
2023-01-25T18:06:40.004Z,2.42
2023-01-25T18:09:06.911Z,2.35
2023-01-25T18:11:34.721Z,3.15
2023-01-25T18:14:02.923Z,3.10
2023-01-25T18:16:30.560Z,2.53
2023-01-25T18:18:58.485Z,3.05
2023-01-25T18:21:26.682Z,2.13
2023-01-25T18:23:54.495Z,2.58
2023-01-25T18:26:25.848Z,2.28
2023-01-25T18:28:58.755Z,3.20
2023-01-25T18:31:25.470Z,3.20
2023-01-25T18:33:52.036Z,3.63
2023-01-25T18:36:18.584Z,1.92
2023-01-25T18:38:45.366Z,3.25
2023-01-25T18:41:12.194Z,3.33
2023-01-25T18:43:38.696Z,3.08
2023-01-25T18:46:05.357Z,2.45
2023-01-25T18:48:31.961Z,3.20
2023-01-25T18:51:09.229Z,3.67
2023-01-25T18:53:36.853Z,2.85
2023-01-25T18:56:17.087Z,3.13
2023-01-25T18:58:43.819Z,3.47
2023-01-25T19:01:11.900Z,3.40
2023-01-25T19:03:38.473Z,2.70
2023-01-25T19:06:05.043Z,3.10
2023-01-25T19:08:36.454Z,3.47
2023-01-25T19:11:06.096Z,3.00
2023-01-25T19:13:36.723Z,4.10
2023-01-25T19:16:08.087Z,4.15
2023-01-25T19:18:35.941Z,3.80
2023-01-25T19:21:06.228Z,2.97
2023-01-25T19:23:33.379Z,4.00
2023-01-25T19:25:59.832Z,3.45
2023-01-25T19:28:26.349Z,3.20
2023-01-25T19:30:52.946Z,4.15
2023-01-25T19:33:19.463Z,2.90
2023-01-25T19:35:45.945Z,3.10
2023-01-25T19:38:12.484Z,2.72
2023-01-25T19:40:38.977Z,3.20
2023-01-25T19:43:05.487Z,3.70
2023-01-25T19:45:32.027Z,2.88
2023-01-25T19:47:58.472Z,3.67
2023-01-25T19:50:25.022Z,2.50
2023-01-25T19:52:51.487Z,2.72
2023-01-25T19:55:17.955Z,3.03
2023-01-25T19:57:46.036Z,3.33
2023-01-25T20:00:12.932Z,2.40
2023-01-25T20:02:39.561Z,2.35
2023-01-25T20:05:06.272Z,2.80
2023-01-25T20:07:33.359Z,2.88
2023-01-25T20:09:59.821Z,2.55
2023-01-25T20:12:26.321Z,2.70
2023-01-25T20:14:53.179Z,2.45
2023-01-25T20:17:19.767Z,2.47
2023-01-25T20:19:47.574Z,2.80
2023-01-25T20:22:14.089Z,3.03
2023-01-25T20:24:40.544Z,2.22
2023-01-25T20:27:07.509Z,2.88
2023-01-25T20:29:33.996Z,2.65
2023-01-25T20:32:03.799Z,2.33
2023-01-25T20:34:30.333Z,2.50
2023-01-25T20:36:56.815Z,3.05
2023-01-25T20:39:23.331Z,2.25
2023-01-25T20:41:53.480Z,2.70
2023-01-25T20:44:20.205Z,1.55
2023-01-25T20:46:46.823Z,3.22
2023-01-25T20:49:17.590Z,2.22
2023-01-25T20:51:44.546Z,2.28
2023-01-25T20:54:11.418Z,2.30
2023-01-25T20:56:38.057Z,2.80
2023-01-25T20:59:04.598Z,2.30
2023-01-25T21:01:36.579Z,2.45
2023-01-25T21:04:03.500Z,3.22
2023-01-25T21:06:30.677Z,2.40
2023-01-25T21:08:59.304Z,3.15
2023-01-25T21:11:26.235Z,2.83
2023-01-25T21:13:53.990Z,3.80
2023-01-25T21:16:24.056Z,2.50
2023-01-25T21:18:55.078Z,1.90
2023-01-25T21:21:21.621Z,2.33
2023-01-25T21:23:48.977Z,2.30
2023-01-25T21:26:25.762Z,2.30
2023-01-25T21:28:54.660Z,2.97
2023-01-25T21:31:22.961Z,2.72
2023-01-25T21:33:49.763Z,1.55
2023-01-25T21:36:17.018Z,2.78
2023-01-25T21:38:44.457Z,2.45
2023-01-25T21:41:12.751Z,3.08
2023-01-25T21:43:57.678Z,3.38
2023-01-25T21:46:27.861Z,2.25
2023-01-25T21:49:14.061Z,2.00
2023-01-25T21:51:49.193Z,2.03
2023-01-25T21:54:19.953Z,2.28
2023-01-25T21:56:47.466Z,2.80
2023-01-25T21:59:13.991Z,2.08
2023-01-25T22:01:40.604Z,2.88
2023-01-25T22:04:24.765Z,2.13
2023-01-25T22:09:19.090Z,2.30
2023-01-25T22:11:46.034Z,2.63
2023-01-25T22:14:13.279Z,2.33
2023-01-25T22:16:39.799Z,3.20
2023-01-25T22:19:06.324Z,2.60
2023-01-25T22:21:33.177Z,3.15
2023-01-25T22:24:01.237Z,1.98
2023-01-25T22:26:54.156Z,2.63
2023-01-25T22:29:20.607Z,3.70
2023-01-25T22:31:47.113Z,2.58
2023-01-25T22:34:13.635Z,2.65
2023-01-25T22:36:40.096Z,3.03
2023-01-25T22:39:06.620Z,2.83
2023-01-25T22:41:33.327Z,3.05
2023-01-25T22:43:59.833Z,2.70
2023-01-25T22:46:28.468Z,2.30
2023-01-25T22:48:55.251Z,3.10
2023-01-25T22:51:25.221Z,2.92
2023-01-25T22:53:54.497Z,3.10
2023-01-25T22:56:25.485Z,4.28
2023-01-25T22:58:52.467Z,2.75
2023-01-25T23:01:20.466Z,3.03
2023-01-25T23:03:47.504Z,2.55
2023-01-25T23:06:21.284Z,2.72
2023-01-25T23:11:15.585Z,2.22
2023-01-25T23:14:02.516Z,2.33
2023-01-25T23:16:29.284Z,2.83
2023-01-25T23:18:55.911Z,2.67
2023-01-25T23:21:23.480Z,3.20
2023-01-25T23:23:51.370Z,3.92
2023-01-25T23:26:17.896Z,2.72
2023-01-25T23:28:50.689Z,3.45
2023-01-25T23:31:17.912Z,2.40
2023-01-25T23:33:45.636Z,2.95
2023-01-25T23:36:13.616Z,2.80
2023-01-25T23:38:40.173Z,3.30
2023-01-25T23:41:06.676Z,4.32
2023-01-25T23:43:33.184Z,3.80
2023-01-25T23:45:59.761Z,3.40
2023-01-25T23:48:26.286Z,2.85
2023-01-25T23:50:53.226Z,3.95
2023-01-25T23:53:20.197Z,3.80
2023-01-25T23:55:53.397Z,2.72
2023-01-25T23:58:20.328Z,3.50
